createdAt,value
2023-04-21T00:01:44.371Z,4.30
2023-04-21T00:04:15.368Z,4.95
2023-04-21T00:06:44.456Z,4.32
2023-04-21T00:09:11.992Z,4.00
2023-04-21T00:11:39.185Z,5.03
2023-04-21T00:14:06.543Z,4.38
2023-04-21T00:16:33.938Z,4.55
2023-04-21T00:19:02.324Z,4.35
2023-04-21T00:21:29.543Z,4.15
2023-04-21T00:23:56.745Z,3.92
2023-04-21T00:26:24.430Z,3.65
2023-04-21T00:28:52.606Z,3.63
2023-04-21T00:31:19.841Z,3.75
2023-04-21T00:33:47.095Z,3.95
2023-04-21T00:36:15.330Z,3.63
2023-04-21T00:38:42.589Z,4.85
2023-04-21T00:41:09.788Z,4.10
2023-04-21T00:43:58.522Z,4.18
2023-04-21T00:46:25.969Z,4.00
2023-04-21T00:48:54.006Z,3.63
2023-04-21T00:51:21.666Z,4.22
2023-04-21T00:53:49.965Z,4.20
2023-04-21T00:56:18.566Z,3.92
2023-04-21T00:58:46.211Z,4.00
2023-04-21T01:01:14.640Z,3.95
2023-04-21T01:03:47.678Z,4.03
2023-04-21T01:06:15.065Z,3.38
2023-04-21T01:08:42.612Z,3.83
2023-04-21T01:11:12.184Z,3.70
2023-04-21T01:13:41.236Z,3.83
2023-04-21T01:16:09.143Z,4.53
2023-04-21T01:18:36.910Z,3.50
2023-04-21T01:21:06.143Z,4.25
2023-04-21T01:23:34.091Z,3.75
2023-04-21T01:26:01.380Z,4.22
2023-04-21T01:28:32.351Z,4.18
2023-04-21T01:31:00.859Z,3.88
2023-04-21T01:33:28.665Z,3.80
2023-04-21T01:35:58.626Z,4.20
2023-04-21T01:38:26.027Z,3.60
2023-04-21T01:40:56.552Z,4.15
2023-04-21T01:43:25.906Z,8.32
2023-04-21T01:45:53.282Z,8.25
2023-04-21T01:48:20.682Z,10.73
2023-04-21T01:50:47.906Z,9.27
2023-04-21T01:53:15.180Z,5.88
2023-04-21T01:55:42.439Z,4.45
2023-04-21T01:58:10.336Z,4.30
2023-04-21T02:00:37.563Z,3.63
2023-04-21T02:03:05.743Z,3.80
2023-04-21T02:05:33.060Z,3.20
2023-04-21T02:08:00.434Z,3.38
2023-04-21T02:10:27.719Z,4.20
2023-04-21T02:12:54.959Z,4.00
2023-04-21T02:15:22.407Z,3.38
2023-04-21T02:17:49.825Z,3.55
2023-04-21T02:20:17.012Z,3.80
2023-04-21T02:22:47.315Z,3.15
2023-04-21T02:25:14.560Z,3.13
2023-04-21T02:27:41.756Z,3.53
2023-04-21T02:30:09.502Z,3.38
2023-04-21T02:32:36.785Z,3.60
2023-04-21T02:35:05.412Z,3.35
2023-04-21T02:37:32.641Z,4.00
2023-04-21T02:39:59.879Z,3.00
2023-04-21T02:42:27.219Z,3.08
2023-04-21T02:44:54.555Z,3.63
2023-04-21T02:47:21.869Z,3.20
2023-04-21T02:49:49.258Z,2.85
2023-04-21T02:52:16.477Z,3.47
2023-04-21T02:54:44.734Z,3.33
2023-04-21T02:57:11.825Z,3.65
2023-04-21T02:59:40.239Z,3.05
2023-04-21T03:02:07.514Z,3.28
2023-04-21T03:04:39.224Z,3.75
2023-04-21T03:07:11.926Z,3.38
2023-04-21T03:09:40.584Z,3.80
2023-04-21T03:12:07.902Z,2.85
2023-04-21T03:14:36.798Z,3.00
2023-04-21T03:17:04.099Z,3.58
2023-04-21T03:19:35.242Z,4.15
2023-04-21T03:22:02.426Z,3.72
2023-04-21T03:24:30.059Z,3.15
2023-04-21T03:26:57.282Z,3.20
2023-04-21T03:29:24.798Z,3.72
2023-04-21T03:31:54.074Z,3.53
2023-04-21T03:34:22.137Z,3.08
2023-04-21T03:36:49.539Z,3.28
2023-04-21T03:39:20.190Z,3.65
2023-04-21T03:41:49.187Z,4.00
2023-04-21T03:44:16.418Z,3.65
2023-04-21T03:46:44.064Z,3.63
2023-04-21T03:49:11.450Z,2.85
2023-04-21T03:51:38.763Z,4.15
2023-04-21T03:54:05.968Z,3.60
2023-04-21T03:56:33.251Z,3.35
2023-04-21T03:59:00.807Z,3.20
2023-04-21T04:01:28.103Z,4.15
2023-04-21T04:03:55.512Z,4.03
2023-04-21T04:06:22.821Z,3.47
2023-04-21T04:08:50.270Z,3.55
2023-04-21T04:11:17.471Z,3.53
2023-04-21T04:13:44.719Z,3.35
2023-04-21T04:16:11.999Z,3.20
2023-04-21T04:18:39.261Z,4.00
2023-04-21T04:21:07.545Z,3.60
2023-04-21T04:23:35.271Z,4.07
2023-04-21T04:26:05.556Z,3.47
2023-04-21T04:28:33.603Z,3.47
2023-04-21T04:31:00.894Z,3.03
2023-04-21T04:33:28.480Z,3.40
2023-04-21T04:35:55.767Z,4.03
2023-04-21T04:38:23.203Z,3.83
2023-04-21T04:40:55.212Z,3.60
2023-04-21T04:43:22.824Z,4.03
2023-04-21T04:45:50.050Z,3.63
2023-04-21T04:48:17.296Z,3.45
2023-04-21T04:50:47.690Z,3.97
2023-04-21T04:53:15.182Z,3.97
2023-04-21T04:55:42.438Z,4.68
2023-04-21T04:58:09.639Z,3.97
2023-04-21T05:00:37.051Z,3.20
2023-04-21T05:03:04.942Z,3.22
2023-04-21T05:05:32.512Z,3.92
2023-04-21T05:07:59.787Z,3.13
2023-04-21T05:10:27.110Z,3.58
2023-04-21T05:12:55.247Z,3.42
2023-04-21T05:15:23.004Z,3.30
2023-04-21T05:17:52.807Z,3.88
2023-04-21T05:20:20.100Z,3.60
2023-04-21T05:22:47.282Z,4.15
2023-04-21T05:25:15.707Z,3.15
2023-04-21T05:28:37.194Z,3.92
2023-04-21T05:31:05.746Z,3.75
2023-04-21T05:33:35.430Z,3.60
2023-04-21T05:36:11.506Z,3.90
2023-04-21T05:38:39.419Z,4.03
2023-04-21T05:41:06.729Z,3.35
2023-04-21T05:43:34.620Z,4.10
2023-04-21T05:46:02.698Z,4.47
2023-04-21T05:48:29.978Z,4.85
2023-04-21T05:51:07.717Z,3.67
2023-04-21T05:53:35.257Z,4.15
2023-04-21T05:56:02.428Z,3.42
2023-04-21T05:58:29.649Z,3.90
2023-04-21T06:00:57.831Z,4.15
2023-04-21T06:03:25.153Z,4.03
2023-04-21T06:05:56.119Z,3.50
2023-04-21T06:08:23.890Z,3.90
2023-04-21T06:10:51.050Z,4.13
2023-04-21T06:13:18.256Z,3.92
2023-04-21T06:15:45.550Z,4.30
2023-04-21T06:18:12.884Z,4.00
2023-04-21T06:20:41.169Z,4.47
2023-04-21T06:23:09.515Z,3.92
2023-04-21T06:25:36.693Z,5.10
2023-04-21T06:28:12.245Z,4.03
2023-04-21T06:30:45.936Z,4.13
2023-04-21T06:33:13.137Z,4.35
2023-04-21T06:35:40.512Z,4.47
2023-04-21T06:38:08.972Z,4.55
2023-04-21T06:40:36.192Z,4.10
2023-04-21T06:43:03.390Z,4.43
2023-04-21T06:45:30.547Z,3.90
2023-04-21T06:47:59.468Z,4.88
2023-04-21T06:52:53.930Z,5.20
2023-04-21T06:55:21.223Z,4.63
2023-04-21T06:57:56.713Z,4.60
2023-04-21T07:00:23.996Z,4.57
2023-04-21T07:02:51.373Z,4.00
2023-04-21T07:05:18.793Z,4.68
2023-04-21T07:07:46.041Z,4.00
2023-04-21T07:10:19.005Z,4.40
2023-04-21T07:12:46.570Z,4.63
2023-04-21T07:15:13.885Z,4.60
2023-04-21T07:17:41.158Z,4.15
2023-04-21T07:20:08.943Z,4.30
2023-04-21T07:22:36.712Z,3.67
2023-04-21T07:25:08.377Z,4.13
2023-04-21T07:27:36.992Z,4.72
2023-04-21T07:30:05.483Z,4.25
2023-04-21T07:32:33.775Z,4.22
2023-04-21T07:35:03.381Z,4.47
2023-04-21T07:37:30.851Z,4.80
2023-04-21T07:39:58.069Z,4.38
2023-04-21T07:42:26.806Z,4.72
2023-04-21T07:44:59.293Z,4.72
2023-04-21T07:47:26.813Z,4.72
2023-04-21T07:49:54.135Z,4.85
2023-04-21T07:52:21.621Z,3.90
2023-04-21T07:54:50.621Z,4.22
2023-04-21T07:57:17.945Z,5.05
2023-04-21T07:59:45.698Z,4.20
2023-04-21T08:02:13.009Z,3.97
2023-04-21T08:04:46.530Z,4.60
2023-04-21T08:07:15.241Z,4.63
2023-04-21T08:09:42.718Z,4.10
2023-04-21T08:12:09.927Z,4.53
2023-04-21T08:14:38.260Z,4.47
2023-04-21T08:17:05.461Z,4.53
2023-04-21T08:19:32.788Z,4.47
2023-04-21T08:22:00.680Z,4.38
2023-04-21T08:24:28.019Z,4.60
2023-04-21T08:26:55.334Z,4.53
2023-04-21T08:29:22.658Z,4.75
2023-04-21T08:31:49.946Z,4.82
2023-04-21T08:34:17.333Z,4.63
2023-04-21T08:36:47.477Z,4.45
2023-04-21T08:39:19.724Z,4.10
2023-04-21T08:41:47.882Z,4.47
2023-04-21T08:44:15.810Z,4.03
2023-04-21T08:46:44.651Z,4.00
2023-04-21T08:49:15.398Z,4.40
2023-04-21T08:51:42.866Z,4.40
2023-04-21T08:54:10.269Z,4.45
2023-04-21T08:56:37.679Z,4.07
2023-04-21T08:59:04.862Z,4.50
2023-04-21T09:01:32.136Z,4.18
2023-04-21T09:04:18.788Z,4.78
2023-04-21T09:06:46.408Z,4.60
2023-04-21T09:09:13.819Z,4.15
2023-04-21T09:11:41.012Z,3.70
2023-04-21T09:14:09.168Z,4.22
2023-04-21T09:16:36.622Z,3.75
2023-04-21T09:19:13.354Z,3.80
2023-04-21T09:21:44.363Z,4.20
2023-04-21T09:24:13.186Z,4.45
2023-04-21T09:26:42.668Z,4.47
2023-04-21T09:29:09.906Z,3.53
2023-04-21T09:31:37.226Z,4.45
2023-04-21T09:34:20.920Z,3.85
2023-04-21T09:36:48.303Z,3.65
2023-04-21T09:39:29.186Z,3.65
2023-04-21T09:42:03.916Z,3.83
2023-04-21T09:44:36.371Z,3.60
2023-04-21T09:47:12.402Z,4.20
2023-04-21T09:49:44.668Z,3.50
2023-04-21T09:52:19.212Z,3.92
2023-04-21T09:57:22.505Z,4.15
2023-04-21T09:59:55.876Z,3.83
2023-04-21T10:02:28.035Z,3.42
2023-04-21T10:04:55.571Z,4.25
2023-04-21T10:07:22.952Z,3.80
2023-04-21T10:09:56.449Z,4.10
2023-04-21T10:12:25.608Z,3.83
2023-04-21T10:14:54.059Z,3.50
2023-04-21T10:17:27.494Z,3.47
2023-04-21T10:19:59.812Z,3.50
2023-04-21T10:22:34.167Z,3.72
2023-04-21T10:25:04.114Z,3.70
2023-04-21T10:27:32.326Z,3.88
2023-04-21T10:30:00.662Z,3.70
2023-04-21T10:32:45.269Z,3.42
2023-04-21T10:35:21.762Z,3.65
2023-04-21T10:37:50.398Z,4.35
2023-04-21T10:40:42.595Z,3.78
2023-04-21T10:45:56.766Z,3.42
2023-04-21T10:48:26.475Z,3.90
2023-04-21T10:50:53.719Z,3.75
2023-04-21T10:53:25.766Z,3.53
2023-04-21T10:55:53.551Z,3.75
2023-04-21T10:58:24.277Z,4.25
2023-04-21T11:00:55.093Z,3.75
2023-04-21T11:03:22.458Z,3.78
2023-04-21T11:05:49.832Z,3.72
2023-04-21T11:08:17.202Z,3.80
2023-04-21T11:10:55.606Z,3.78
2023-04-21T11:13:25.036Z,3.50
2023-04-21T11:16:06.800Z,3.58
2023-04-21T11:18:41.871Z,3.65
2023-04-21T11:21:22.399Z,3.38
2023-04-21T11:23:55.329Z,3.50
2023-04-21T11:26:33.532Z,2.47
2023-04-21T11:29:06.497Z,2.78
2023-04-21T11:31:36.265Z,2.50
2023-04-21T11:34:08.148Z,3.15
2023-04-21T11:36:43.544Z,3.20
2023-04-21T11:39:13.869Z,2.90
2023-04-21T11:41:43.695Z,2.42
2023-04-21T11:44:12.242Z,2.58
2023-04-21T11:49:15.968Z,2.90
2023-04-21T11:51:44.078Z,2.78
2023-04-21T11:54:12.996Z,3.17
2023-04-21T11:56:47.025Z,2.47
2023-04-21T11:59:25.702Z,3.30
2023-04-21T12:01:54.643Z,2.83
2023-04-21T12:04:23.587Z,2.63
2023-04-21T12:07:02.367Z,2.55
2023-04-21T12:09:30.374Z,2.72
2023-04-21T12:11:58.903Z,2.88
2023-04-21T12:16:58.536Z,2.80
2023-04-21T12:19:48.964Z,2.10
2023-04-21T12:22:18.757Z,2.60
2023-04-21T12:24:46.556Z,2.58
2023-04-21T12:27:14.347Z,2.70
2023-04-21T12:29:42.558Z,2.60
2023-04-21T12:32:10.098Z,2.92
2023-04-21T12:34:37.689Z,2.47
2023-04-21T12:37:06.094Z,2.67
2023-04-21T12:39:33.908Z,2.88
2023-04-21T12:42:01.750Z,3.08
2023-04-21T12:44:28.954Z,2.75
2023-04-21T12:46:57.272Z,2.88
2023-04-21T12:49:25.548Z,2.65
2023-04-21T12:51:52.812Z,2.97
2023-04-21T12:54:20.120Z,3.08
2023-04-21T12:56:47.493Z,3.33
2023-04-21T12:59:14.730Z,2.92
2023-04-21T13:01:44.892Z,2.78
2023-04-21T13:04:12.536Z,2.63
2023-04-21T13:06:40.492Z,3.15
2023-04-21T13:09:08.379Z,2.80
2023-04-21T13:11:35.651Z,2.75
2023-04-21T13:14:04.060Z,2.60
2023-04-21T13:19:00.921Z,2.95
2023-04-21T13:21:28.309Z,3.00
2023-04-21T13:23:58.250Z,3.22
2023-04-21T13:26:26.279Z,2.97
2023-04-21T13:28:53.691Z,2.75
2023-04-21T13:31:21.161Z,2.95
2023-04-21T13:33:48.517Z,3.35
2023-04-21T13:36:15.818Z,2.90
2023-04-21T13:38:43.149Z,3.08
2023-04-21T13:41:10.607Z,3.08
2023-04-21T13:43:37.876Z,2.90
2023-04-21T13:46:05.573Z,3.20
2023-04-21T13:48:32.898Z,2.70
2023-04-21T13:51:00.868Z,3.30
2023-04-21T13:53:28.172Z,3.30
2023-04-21T13:55:57.796Z,3.40
2023-04-21T13:58:26.416Z,3.65
2023-04-21T14:03:21.365Z,3.05
2023-04-21T14:05:48.875Z,3.60
2023-04-21T14:08:16.259Z,3.65
2023-04-21T14:10:43.603Z,3.47
2023-04-21T14:13:17.416Z,3.78
2023-04-21T14:15:55.499Z,3.00
2023-04-21T14:18:23.629Z,3.47
2023-04-21T14:23:18.019Z,3.40
2023-04-21T14:25:45.358Z,3.00
2023-04-21T14:28:13.174Z,3.45
2023-04-21T14:30:42.835Z,3.22
2023-04-21T14:33:10.307Z,4.07
2023-04-21T14:35:37.784Z,3.60
2023-04-21T14:38:05.194Z,3.25
2023-04-21T14:40:32.995Z,3.20
2023-04-21T14:43:00.690Z,3.97
2023-04-21T14:45:28.209Z,3.13
2023-04-21T14:47:55.734Z,3.75
2023-04-21T14:50:23.180Z,3.55
2023-04-21T14:52:50.405Z,3.42
2023-04-21T14:55:17.809Z,3.75
2023-04-21T14:57:45.060Z,3.28
2023-04-21T15:00:12.837Z,3.42
2023-04-21T15:02:40.199Z,2.97
2023-04-21T15:05:08.734Z,3.63
2023-04-21T15:07:36.637Z,3.40
2023-04-21T15:10:04.136Z,3.50
2023-04-21T15:12:35.946Z,3.63
2023-04-21T15:15:04.295Z,4.72
2023-04-21T15:17:32.045Z,3.92
2023-04-21T15:19:59.349Z,4.07
2023-04-21T15:22:26.944Z,4.18
2023-04-21T15:24:54.806Z,4.10
2023-04-21T15:27:22.194Z,3.47
2023-04-21T15:29:49.554Z,3.88
2023-04-21T15:32:16.772Z,4.03
2023-04-21T15:34:43.985Z,3.40
2023-04-21T15:37:11.508Z,4.10
2023-04-21T15:39:39.146Z,3.13
2023-04-21T15:42:07.606Z,3.80
2023-04-21T15:44:35.140Z,3.35
2023-04-21T15:47:02.918Z,3.63
2023-04-21T15:51:58.882Z,3.03
2023-04-21T15:54:26.454Z,3.33
2023-04-21T15:56:53.787Z,3.03
2023-04-21T15:59:21.588Z,3.33
2023-04-21T16:01:52.503Z,3.08
2023-04-21T16:04:20.279Z,2.97
2023-04-21T16:06:47.779Z,4.00
2023-04-21T16:09:15.316Z,3.67
2023-04-21T16:11:42.808Z,3.20
2023-04-21T16:14:10.031Z,3.22
2023-04-21T16:16:39.390Z,3.50
2023-04-21T16:19:06.858Z,3.50
2023-04-21T16:21:34.770Z,4.18
2023-04-21T16:24:03.789Z,3.95
2023-04-21T16:26:33.260Z,3.63
2023-04-21T16:29:00.845Z,3.90
2023-04-21T16:31:28.086Z,3.92
2023-04-21T16:33:59.672Z,3.75
2023-04-21T16:36:28.333Z,4.68
2023-04-21T16:38:55.947Z,3.70
2023-04-21T16:41:23.531Z,3.72
2023-04-21T16:43:51.012Z,4.05
2023-04-21T16:46:18.568Z,4.05
2023-04-21T16:48:46.415Z,4.03
2023-04-21T16:51:13.750Z,4.05
2023-04-21T16:53:41.994Z,3.60
2023-04-21T16:56:09.596Z,3.70
2023-04-21T16:58:37.746Z,3.97
2023-04-21T17:01:31.390Z,4.07
2023-04-21T17:04:18.881Z,4.10
2023-04-21T17:06:48.171Z,3.33
2023-04-21T17:09:15.576Z,4.30
2023-04-21T17:11:42.980Z,4.03
2023-04-21T17:14:10.702Z,4.28
2023-04-21T17:16:38.084Z,4.40
2023-04-21T17:19:05.633Z,4.53
2023-04-21T17:21:33.374Z,4.70
2023-04-21T17:24:00.693Z,4.65
2023-04-21T17:26:28.036Z,4.28
2023-04-21T17:28:55.431Z,4.45
2023-04-21T17:31:23.070Z,3.38
2023-04-21T17:33:52.514Z,3.90
2023-04-21T17:36:24.290Z,3.50
2023-04-21T17:38:52.048Z,3.28
2023-04-21T17:41:34.654Z,3.30
2023-04-21T17:44:05.153Z,3.60
2023-04-21T17:46:32.809Z,3.80
2023-04-21T17:49:00.562Z,3.55
2023-04-21T17:51:39.012Z,4.25
2023-04-21T17:54:09.080Z,3.47
2023-04-21T17:56:36.629Z,3.97
2023-04-21T17:59:04.261Z,3.60
2023-04-21T18:01:31.593Z,3.65
2023-04-21T18:04:01.021Z,3.90
2023-04-21T18:06:28.960Z,3.88
2023-04-21T18:08:56.298Z,3.67
2023-04-21T18:11:23.781Z,3.95
2023-04-21T18:13:51.101Z,3.63
2023-04-21T18:16:18.453Z,4.38
2023-04-21T18:18:47.289Z,3.78
2023-04-21T18:21:15.832Z,4.30
2023-04-21T18:26:51.358Z,3.70
2023-04-21T18:29:19.556Z,3.63
2023-04-21T18:31:46.918Z,3.53
2023-04-21T18:34:14.581Z,3.13
2023-04-21T18:36:43.048Z,3.63
2023-04-21T18:39:11.121Z,4.18
2023-04-21T18:41:38.471Z,3.78
2023-04-21T18:44:05.994Z,3.85
2023-04-21T18:46:33.712Z,3.50
2023-04-21T18:49:01.071Z,3.47
2023-04-21T18:51:31.025Z,3.85
2023-04-21T18:53:58.386Z,3.83
2023-04-21T18:56:26.460Z,4.15
2023-04-21T18:58:56.958Z,4.00
2023-04-21T19:01:24.684Z,3.95
2023-04-21T19:03:53.063Z,4.10
2023-04-21T19:06:20.444Z,4.00
2023-04-21T19:08:51.188Z,4.20
2023-04-21T19:11:18.608Z,4.32
2023-04-21T19:13:48.053Z,3.80
2023-04-21T19:16:16.725Z,3.80
2023-04-21T19:18:44.113Z,3.80
2023-04-21T19:21:13.565Z,4.55
2023-04-21T19:23:41.636Z,4.03
2023-04-21T19:26:09.894Z,4.18
2023-04-21T19:28:42.790Z,4.47
2023-04-21T19:31:10.358Z,4.35
2023-04-21T19:33:37.611Z,3.90
2023-04-21T19:36:07.171Z,4.45
2023-04-21T19:38:34.364Z,4.38
2023-04-21T19:41:01.815Z,3.88
2023-04-21T19:43:29.054Z,4.28
2023-04-21T19:45:56.702Z,5.55
2023-04-21T19:48:26.616Z,5.10
2023-04-21T19:50:53.922Z,4.50
2023-04-21T19:53:21.266Z,4.25
2023-04-21T19:55:53.165Z,4.68
2023-04-21T19:58:38.901Z,4.82
2023-04-21T20:01:07.900Z,4.32
2023-04-21T20:03:35.493Z,4.22
2023-04-21T20:06:04.814Z,4.38
2023-04-21T20:08:35.535Z,4.40
2023-04-21T20:11:03.018Z,4.38
2023-04-21T20:13:30.378Z,4.50
2023-04-21T20:15:57.637Z,4.60
2023-04-21T20:18:25.044Z,4.47
2023-04-21T20:20:52.283Z,4.78
2023-04-21T20:23:19.864Z,4.95
2023-04-21T20:25:47.090Z,4.40
2023-04-21T20:28:14.307Z,4.55
2023-04-21T20:30:41.571Z,4.20
2023-04-21T20:33:13.043Z,4.20
2023-04-21T20:35:43.766Z,3.85
2023-04-21T20:38:11.334Z,4.13
2023-04-21T20:40:39.457Z,4.13
2023-04-21T20:43:07.908Z,5.18
2023-04-21T20:48:04.687Z,3.78
2023-04-21T20:50:32.478Z,3.85
2023-04-21T20:53:00.165Z,4.10
2023-04-21T20:55:27.617Z,4.15
2023-04-21T20:58:00.883Z,4.30
2023-04-21T21:00:31.079Z,3.72
2023-04-21T21:02:59.562Z,4.95
2023-04-21T21:05:33.538Z,4.00
2023-04-21T21:08:01.600Z,4.03
2023-04-21T21:10:30.340Z,3.40
2023-04-21T21:12:59.815Z,4.00
2023-04-21T21:15:28.584Z,4.22
2023-04-21T21:20:24.071Z,3.58
2023-04-21T21:22:52.213Z,4.10
2023-04-21T21:25:24.208Z,4.22
2023-04-21T21:27:52.534Z,4.68
2023-04-21T21:30:21.354Z,4.25
2023-04-21T21:32:49.450Z,4.95
2023-04-21T21:35:17.523Z,4.38
2023-04-21T21:37:45.527Z,4.78
2023-04-21T21:40:14.083Z,5.07
2023-04-21T21:42:42.419Z,4.15
2023-04-21T21:45:11.098Z,4.55
2023-04-21T21:47:41.649Z,4.68
2023-04-21T21:50:12.204Z,4.60
2023-04-21T21:52:39.666Z,5.03
2023-04-21T21:55:07.409Z,4.40
2023-04-21T21:57:34.908Z,3.95
2023-04-21T22:00:04.358Z,4.53
2023-04-21T22:02:32.460Z,4.38
2023-04-21T22:05:04.092Z,4.20
2023-04-21T22:07:32.869Z,4.07
2023-04-21T22:10:00.582Z,4.22
2023-04-21T22:12:28.007Z,4.38
2023-04-21T22:14:55.484Z,4.18
2023-04-21T22:17:24.838Z,4.47
2023-04-21T22:19:54.595Z,4.75
2023-04-21T22:22:21.925Z,4.07
2023-04-21T22:24:49.135Z,3.97
2023-04-21T22:27:16.339Z,4.53
2023-04-21T22:29:43.579Z,4.22
2023-04-21T22:32:11.194Z,4.60
2023-04-21T22:34:38.570Z,4.32
2023-04-21T22:37:06.000Z,4.55
2023-04-21T22:39:33.562Z,4.03
2023-04-21T22:42:01.013Z,4.55
2023-04-21T22:44:28.756Z,4.63
2023-04-21T22:46:57.121Z,4.55
2023-04-21T22:49:24.841Z,4.93
2023-04-21T22:51:52.102Z,4.90
2023-04-21T22:54:19.334Z,4.45
2023-04-21T22:56:47.218Z,5.05
2023-04-21T22:59:14.433Z,4.28
2023-04-21T23:01:42.794Z,4.55
2023-04-21T23:04:10.213Z,4.85
2023-04-21T23:06:37.618Z,4.30
2023-04-21T23:09:05.045Z,4.70
2023-04-21T23:11:32.412Z,4.57
2023-04-21T23:13:59.766Z,4.60
2023-04-21T23:16:27.133Z,4.30
2023-04-21T23:18:54.525Z,3.63
2023-04-21T23:21:21.766Z,4.72
2023-04-21T23:23:49.080Z,4.90
2023-04-21T23:26:16.311Z,4.47
2023-04-21T23:28:45.697Z,5.18
2023-04-21T23:31:13.068Z,4.80
2023-04-21T23:33:40.351Z,5.00
2023-04-21T23:36:07.641Z,5.10
2023-04-21T23:38:34.888Z,4.22
2023-04-21T23:41:02.146Z,4.63
2023-04-21T23:43:29.459Z,4.60
2023-04-21T23:45:56.685Z,4.85
2023-04-21T23:48:23.902Z,5.22
2023-04-21T23:50:51.444Z,5.05
2023-04-21T23:53:18.638Z,4.90
2023-04-21T23:55:46.140Z,4.80
2023-04-21T23:58:13.772Z,5.03
